Terminal Aerodrome Forecast
Issued by NWS Tampa Bay Area, FL

Current Version | Previous Version | Text Only | Print | Product List | Glossary On
Versions: 1 2 3 4 5 6 7 8 9 10 11 12 13 14 15 16 17 18 19 20 21 22 23 24 25 26 27 28
231
FTUS42 KTBW 191722
TAFTPA
TAF
KTPA 191722Z 1918/2018 27008KT P6SM SCT030 SCT250
     FM192200 31008KT P6SM FEW040 SCT250
     FM200200 VRB03KT P6SM SKC
     FM200800 VRB03KT 4SM BR SCT005=

USA.gov is the U.S. government's official web portal to all federal, state and local government web resources and services.